sensor_id;sensor_type;location;lat;lon;timestamp;temperature;humidity
12557;DHT22;6344;49.932;8.308;2023-05-14T00:02:09;9.50;99.90
12557;DHT22;6344;49.932;8.308;2023-05-14T00:04:37;9.50;99.90
12557;DHT22;6344;49.932;8.308;2023-05-14T00:07:03;9.40;99.90
12557;DHT22;6344;49.932;8.308;2023-05-14T00:09:31;9.50;99.90
12557;DHT22;6344;49.932;8.308;2023-05-14T00:11:57;9.40;99.90
12557;DHT22;6344;49.932;8.308;2023-05-14T00:14:24;9.30;99.90
12557;DHT22;6344;49.932;8.308;2023-05-14T00:16:51;9.20;99.90
12557;DHT22;6344;49.932;8.308;2023-05-14T00:19:17;9.20;99.90
12557;DHT22;6344;49.932;8.308;2023-05-14T00:21:46;9.10;99.90
12557;DHT22;6344;49.932;8.308;2023-05-14T00:24:13;9.10;99.90
12557;DHT22;6344;49.932;8.308;2023-05-14T00:26:39;9.10;99.90
12557;DHT22;6344;49.932;8.308;2023-05-14T00:29:06;9.10;99.90
12557;DHT22;6344;49.932;8.308;2023-05-14T00:31:33;9.20;99.90
12557;DHT22;6344;49.932;8.308;2023-05-14T00:33:59;9.10;99.90
12557;DHT22;6344;49.932;8.308;2023-05-14T00:36:26;9.00;99.90
12557;DHT22;6344;49.932;8.308;2023-05-14T00:38:54;9.10;99.90
12557;DHT22;6344;49.932;8.308;2023-05-14T00:41:21;9.10;99.90
12557;DHT22;6344;49.932;8.308;2023-05-14T00:43:48;9.10;99.90
12557;DHT22;6344;49.932;8.308;2023-05-14T00:46:15;9.00;99.90
12557;DHT22;6344;49.932;8.308;2023-05-14T00:48:42;9.00;99.90
12557;DHT22;6344;49.932;8.308;2023-05-14T00:51:09;9.00;99.90
12557;DHT22;6344;49.932;8.308;2023-05-14T00:53:36;9.00;99.90
12557;DHT22;6344;49.932;8.308;2023-05-14T00:56:04;8.90;99.90
12557;DHT22;6344;49.932;8.308;2023-05-14T00:58:32;8.90;99.90
12557;DHT22;6344;49.932;8.308;2023-05-14T01:00:59;8.80;99.90
12557;DHT22;6344;49.932;8.308;2023-05-14T01:03:26;9.00;99.90
12557;DHT22;6344;49.932;8.308;2023-05-14T01:06:00;8.80;99.90
12557;DHT22;6344;49.932;8.308;2023-05-14T01:08:35;8.60;99.90
12557;DHT22;6344;49.932;8.308;2023-05-14T01:11:06;8.70;99.90
12557;DHT22;6344;49.932;8.308;2023-05-14T01:13:40;8.60;99.90
12557;DHT22;6344;49.932;8.308;2023-05-14T01:16:11;8.60;99.90
12557;DHT22;6344;49.932;8.308;2023-05-14T01:18:39;8.50;99.90
12557;DHT22;6344;49.932;8.308;2023-05-14T01:23:47;8.50;99.90
12557;DHT22;6344;49.932;8.308;2023-05-14T01:26:13;8.60;99.90
12557;DHT22;6344;49.932;8.308;2023-05-14T01:28:40;8.50;99.90
12557;DHT22;6344;49.932;8.308;2023-05-14T01:31:14;8.70;99.90
12557;DHT22;6344;49.932;8.308;2023-05-14T01:33:43;8.70;99.90
12557;DHT22;6344;49.932;8.308;2023-05-14T01:36:11;8.70;99.90
12557;DHT22;6344;49.932;8.308;2023-05-14T01:38:38;8.70;99.90
12557;DHT22;6344;49.932;8.308;2023-05-14T01:41:11;8.80;99.90
12557;DHT22;6344;49.932;8.308;2023-05-14T01:43:39;8.80;99.90
12557;DHT22;6344;49.932;8.308;2023-05-14T01:46:06;8.90;99.90
12557;DHT22;6344;49.932;8.308;2023-05-14T01:48:33;8.90;99.90
12557;DHT22;6344;49.932;8.308;2023-05-14T01:51:00;8.80;99.90
12557;DHT22;6344;49.932;8.308;2023-05-14T01:53:27;8.80;99.90
12557;DHT22;6344;49.932;8.308;2023-05-14T01:55:53;8.80;99.90
12557;DHT22;6344;49.932;8.308;2023-05-14T01:58:21;8.80;99.90
12557;DHT22;6344;49.932;8.308;2023-05-14T02:00:48;8.80;99.90
12557;DHT22;6344;49.932;8.308;2023-05-14T02:03:14;8.80;99.90
12557;DHT22;6344;49.932;8.308;2023-05-14T02:05:41;8.80;99.90
12557;DHT22;6344;49.932;8.308;2023-05-14T02:08:07;8.70;99.90
12557;DHT22;6344;49.932;8.308;2023-05-14T02:10:34;8.70;99.90
12557;DHT22;6344;49.932;8.308;2023-05-14T02:13:02;8.60;99.90
12557;DHT22;6344;49.932;8.308;2023-05-14T02:15:30;8.40;99.90
12557;DHT22;6344;49.932;8.308;2023-05-14T02:17:56;8.50;99.90
12557;DHT22;6344;49.932;8.308;2023-05-14T02:20:23;8.30;99.90
12557;DHT22;6344;49.932;8.308;2023-05-14T02:22:50;8.40;99.90
12557;DHT22;6344;49.932;8.308;2023-05-14T02:25:16;8.30;99.90
12557;DHT22;6344;49.932;8.308;2023-05-14T02:27:43;8.40;99.90
12557;DHT22;6344;49.932;8.308;2023-05-14T02:30:10;8.30;99.90
12557;DHT22;6344;49.932;8.308;2023-05-14T02:32:38;8.40;99.90
12557;DHT22;6344;49.932;8.308;2023-05-14T02:35:06;8.40;99.90
12557;DHT22;6344;49.932;8.308;2023-05-14T02:37:32;8.30;99.90
12557;DHT22;6344;49.932;8.308;2023-05-14T02:40:00;8.20;99.90
12557;DHT22;6344;49.932;8.308;2023-05-14T02:42:26;8.20;99.90
12557;DHT22;6344;49.932;8.308;2023-05-14T02:44:53;8.20;99.90
12557;DHT22;6344;49.932;8.308;2023-05-14T02:47:20;8.20;99.90
12557;DHT22;6344;49.932;8.308;2023-05-14T02:49:47;8.40;99.90
12557;DHT22;6344;49.932;8.308;2023-05-14T02:52:14;8.40;99.90
12557;DHT22;6344;49.932;8.308;2023-05-14T02:54:41;8.40;99.90
12557;DHT22;6344;49.932;8.308;2023-05-14T02:57:07;8.30;99.90
12557;DHT22;6344;49.932;8.308;2023-05-14T02:59:34;8.40;99.90
12557;DHT22;6344;49.932;8.308;2023-05-14T03:02:00;8.20;99.90
12557;DHT22;6344;49.932;8.308;2023-05-14T03:04:27;8.20;99.90
12557;DHT22;6344;49.932;8.308;2023-05-14T03:06:55;8.20;99.90
12557;DHT22;6344;49.932;8.308;2023-05-14T03:09:21;8.20;99.90
12557;DHT22;6344;49.932;8.308;2023-05-14T03:11:49;8.10;99.90
12557;DHT22;6344;49.932;8.308;2023-05-14T03:14:15;8.20;99.90
12557;DHT22;6344;49.932;8.308;2023-05-14T03:16:42;8.30;99.90
12557;DHT22;6344;49.932;8.308;2023-05-14T03:19:09;8.30;99.90
12557;DHT22;6344;49.932;8.308;2023-05-14T03:21:35;8.30;99.90
12557;DHT22;6344;49.932;8.308;2023-05-14T03:24:04;8.30;99.90
12557;DHT22;6344;49.932;8.308;2023-05-14T03:26:30;8.40;99.90
12557;DHT22;6344;49.932;8.308;2023-05-14T03:28:57;8.50;99.90
12557;DHT22;6344;49.932;8.308;2023-05-14T03:31:24;8.50;99.90
12557;DHT22;6344;49.932;8.308;2023-05-14T03:33:50;8.60;99.90
12557;DHT22;6344;49.932;8.308;2023-05-14T03:36:17;8.60;99.90
12557;DHT22;6344;49.932;8.308;2023-05-14T03:38:43;8.70;99.90
12557;DHT22;6344;49.932;8.308;2023-05-14T03:41:11;8.80;99.90
12557;DHT22;6344;49.932;8.308;2023-05-14T03:43:38;8.90;99.90
12557;DHT22;6344;49.932;8.308;2023-05-14T03:46:05;8.90;99.90
12557;DHT22;6344;49.932;8.308;2023-05-14T03:48:31;9.00;99.90
12557;DHT22;6344;49.932;8.308;2023-05-14T03:50:58;9.00;99.90
12557;DHT22;6344;49.932;8.308;2023-05-14T03:53:24;9.10;99.90
12557;DHT22;6344;49.932;8.308;2023-05-14T03:55:51;9.10;99.90
12557;DHT22;6344;49.932;8.308;2023-05-14T03:58:19;9.10;99.90
12557;DHT22;6344;49.932;8.308;2023-05-14T04:00:46;9.10;99.90
12557;DHT22;6344;49.932;8.308;2023-05-14T04:03:12;9.20;99.90
12557;DHT22;6344;49.932;8.308;2023-05-14T04:05:39;9.10;99.90
12557;DHT22;6344;49.932;8.308;2023-05-14T04:08:05;9.10;99.90
12557;DHT22;6344;49.932;8.308;2023-05-14T04:10:32;9.00;99.90
12557;DHT22;6344;49.932;8.308;2023-05-14T04:12:59;9.00;99.90
12557;DHT22;6344;49.932;8.308;2023-05-14T04:15:27;9.00;99.90
12557;DHT22;6344;49.932;8.308;2023-05-14T04:17:53;9.00;99.90
12557;DHT22;6344;49.932;8.308;2023-05-14T04:20:20;9.10;99.90
12557;DHT22;6344;49.932;8.308;2023-05-14T04:22:46;9.10;99.90
12557;DHT22;6344;49.932;8.308;2023-05-14T04:25:13;9.10;99.90
12557;DHT22;6344;49.932;8.308;2023-05-14T04:27:39;9.20;99.90
12557;DHT22;6344;49.932;8.308;2023-05-14T04:30:07;9.10;99.90
12557;DHT22;6344;49.932;8.308;2023-05-14T04:32:35;9.10;99.90
12557;DHT22;6344;49.932;8.308;2023-05-14T04:35:02;9.30;99.90
12557;DHT22;6344;49.932;8.308;2023-05-14T04:37:29;9.40;99.90
12557;DHT22;6344;49.932;8.308;2023-05-14T04:39:57;9.60;99.90
12557;DHT22;6344;49.932;8.308;2023-05-14T04:42:23;9.60;99.90
12557;DHT22;6344;49.932;8.308;2023-05-14T04:44:50;9.60;99.90
12557;DHT22;6344;49.932;8.308;2023-05-14T04:47:17;9.70;99.90
12557;DHT22;6344;49.932;8.308;2023-05-14T04:49:45;9.90;99.90
12557;DHT22;6344;49.932;8.308;2023-05-14T04:52:12;9.90;99.90
12557;DHT22;6344;49.932;8.308;2023-05-14T04:54:38;10.00;99.90
12557;DHT22;6344;49.932;8.308;2023-05-14T04:57:05;10.30;99.90
12557;DHT22;6344;49.932;8.308;2023-05-14T04:59:32;10.40;99.90
12557;DHT22;6344;49.932;8.308;2023-05-14T05:01:58;10.60;99.90
12557;DHT22;6344;49.932;8.308;2023-05-14T05:04:25;10.70;99.90
12557;DHT22;6344;49.932;8.308;2023-05-14T05:06:53;11.00;99.90
12557;DHT22;6344;49.932;8.308;2023-05-14T05:09:20;11.00;99.90
12557;DHT22;6344;49.932;8.308;2023-05-14T05:11:46;11.10;99.90
12557;DHT22;6344;49.932;8.308;2023-05-14T05:14:13;11.30;99.90
12557;DHT22;6344;49.932;8.308;2023-05-14T05:16:39;11.50;99.90
12557;DHT22;6344;49.932;8.308;2023-05-14T05:19:06;11.70;99.90
12557;DHT22;6344;49.932;8.308;2023-05-14T05:21:33;11.80;99.90
12557;DHT22;6344;49.932;8.308;2023-05-14T05:24:02;11.90;99.90
12557;DHT22;6344;49.932;8.308;2023-05-14T05:26:28;12.00;99.90
12557;DHT22;6344;49.932;8.308;2023-05-14T05:28:56;12.40;99.90
12557;DHT22;6344;49.932;8.308;2023-05-14T05:31:22;12.60;99.90
12557;DHT22;6344;49.932;8.308;2023-05-14T05:33:49;12.50;99.90
12557;DHT22;6344;49.932;8.308;2023-05-14T05:36:15;12.50;99.90
12557;DHT22;6344;49.932;8.308;2023-05-14T05:38:42;12.60;99.90
12557;DHT22;6344;49.932;8.308;2023-05-14T05:41:10;12.70;99.90
12557;DHT22;6344;49.932;8.308;2023-05-14T05:43:36;12.60;99.90
12557;DHT22;6344;49.932;8.308;2023-05-14T05:46:03;12.80;99.90
12557;DHT22;6344;49.932;8.308;2023-05-14T05:48:30;12.90;99.90
12557;DHT22;6344;49.932;8.308;2023-05-14T05:50:56;12.90;99.90
12557;DHT22;6344;49.932;8.308;2023-05-14T05:53:23;13.10;99.90
12557;DHT22;6344;49.932;8.308;2023-05-14T05:55:50;13.30;99.90
12557;DHT22;6344;49.932;8.308;2023-05-14T05:58:18;13.50;99.90
12557;DHT22;6344;49.932;8.308;2023-05-14T06:00:45;13.60;99.90
12557;DHT22;6344;49.932;8.308;2023-05-14T06:03:12;13.70;99.90
12557;DHT22;6344;49.932;8.308;2023-05-14T06:05:39;13.70;99.90
12557;DHT22;6344;49.932;8.308;2023-05-14T06:08:05;13.90;99.90
12557;DHT22;6344;49.932;8.308;2023-05-14T06:10:32;14.10;99.90
12557;DHT22;6344;49.932;8.308;2023-05-14T06:12:59;14.40;99.90
12557;DHT22;6344;49.932;8.308;2023-05-14T06:15:27;14.80;99.90
12557;DHT22;6344;49.932;8.308;2023-05-14T06:17:53;14.80;99.90
12557;DHT22;6344;49.932;8.308;2023-05-14T06:20:20;14.80;99.90
12557;DHT22;6344;49.932;8.308;2023-05-14T06:22:47;14.70;99.90
12557;DHT22;6344;49.932;8.308;2023-05-14T06:25:13;15.10;99.90
12557;DHT22;6344;49.932;8.308;2023-05-14T06:27:40;14.70;99.90
12557;DHT22;6344;49.932;8.308;2023-05-14T06:30:07;15.00;99.90
12557;DHT22;6344;49.932;8.308;2023-05-14T06:32:36;15.30;99.90
12557;DHT22;6344;49.932;8.308;2023-05-14T06:35:04;15.60;99.90
12557;DHT22;6344;49.932;8.308;2023-05-14T06:37:30;15.40;99.90
12557;DHT22;6344;49.932;8.308;2023-05-14T06:39:57;15.70;99.90
12557;DHT22;6344;49.932;8.308;2023-05-14T06:42:23;16.20;99.90
12557;DHT22;6344;49.932;8.308;2023-05-14T06:44:50;16.20;99.90
12557;DHT22;6344;49.932;8.308;2023-05-14T06:47:17;16.40;99.90
12557;DHT22;6344;49.932;8.308;2023-05-14T06:49:45;16.80;99.90
12557;DHT22;6344;49.932;8.308;2023-05-14T06:52:11;16.70;99.90
12557;DHT22;6344;49.932;8.308;2023-05-14T06:54:38;16.80;99.90
12557;DHT22;6344;49.932;8.308;2023-05-14T06:57:05;17.00;99.90
12557;DHT22;6344;49.932;8.308;2023-05-14T06:59:31;17.10;99.90
12557;DHT22;6344;49.932;8.308;2023-05-14T07:01:58;16.80;99.90
12557;DHT22;6344;49.932;8.308;2023-05-14T07:04:25;17.10;99.90
12557;DHT22;6344;49.932;8.308;2023-05-14T07:06:53;17.00;99.90
12557;DHT22;6344;49.932;8.308;2023-05-14T07:09:20;17.30;99.90
12557;DHT22;6344;49.932;8.308;2023-05-14T07:11:46;17.70;99.90
12557;DHT22;6344;49.932;8.308;2023-05-14T07:14:13;18.40;99.90
12557;DHT22;6344;49.932;8.308;2023-05-14T07:16:40;19.40;99.90
12557;DHT22;6344;49.932;8.308;2023-05-14T07:19:07;19.90;99.90
12557;DHT22;6344;49.932;8.308;2023-05-14T07:21:33;19.80;99.90
12557;DHT22;6344;49.932;8.308;2023-05-14T07:24:01;19.30;99.90
12557;DHT22;6344;49.932;8.308;2023-05-14T07:26:28;19.70;99.90
12557;DHT22;6344;49.932;8.308;2023-05-14T07:28:55;20.00;99.90
12557;DHT22;6344;49.932;8.308;2023-05-14T07:31:22;20.00;99.90
12557;DHT22;6344;49.932;8.308;2023-05-14T07:33:49;20.30;99.90
12557;DHT22;6344;49.932;8.308;2023-05-14T07:36:15;19.40;99.90
12557;DHT22;6344;49.932;8.308;2023-05-14T07:38:42;18.80;99.90
12557;DHT22;6344;49.932;8.308;2023-05-14T07:41:10;19.00;99.90
12557;DHT22;6344;49.932;8.308;2023-05-14T07:43:37;19.10;99.90
12557;DHT22;6344;49.932;8.308;2023-05-14T07:46:04;19.00;99.90
12557;DHT22;6344;49.932;8.308;2023-05-14T07:48:31;18.90;99.90
12557;DHT22;6344;49.932;8.308;2023-05-14T07:50:58;18.70;99.90
12557;DHT22;6344;49.932;8.308;2023-05-14T07:53:25;18.50;99.90
12557;DHT22;6344;49.932;8.308;2023-05-14T07:55:51;19.60;99.90
12557;DHT22;6344;49.932;8.308;2023-05-14T07:58:20;20.70;99.90
12557;DHT22;6344;49.932;8.308;2023-05-14T08:00:47;20.80;99.90
12557;DHT22;6344;49.932;8.308;2023-05-14T08:03:14;21.40;99.90
12557;DHT22;6344;49.932;8.308;2023-05-14T08:05:40;21.20;99.90
12557;DHT22;6344;49.932;8.308;2023-05-14T08:08:07;20.80;99.90
12557;DHT22;6344;49.932;8.308;2023-05-14T08:10:33;20.90;99.90
12557;DHT22;6344;49.932;8.308;2023-05-14T08:13:00;21.30;99.90
12557;DHT22;6344;49.932;8.308;2023-05-14T08:15:28;20.90;99.90
12557;DHT22;6344;49.932;8.308;2023-05-14T08:17:55;20.90;99.90
12557;DHT22;6344;49.932;8.308;2023-05-14T08:20:27;21.40;99.90
12557;DHT22;6344;49.932;8.308;2023-05-14T08:22:55;21.50;99.90
12557;DHT22;6344;49.932;8.308;2023-05-14T08:25:21;21.90;99.90
12557;DHT22;6344;49.932;8.308;2023-05-14T08:27:48;21.90;99.90
12557;DHT22;6344;49.932;8.308;2023-05-14T08:30:15;22.10;99.90
12557;DHT22;6344;49.932;8.308;2023-05-14T08:32:43;21.60;99.90
12557;DHT22;6344;49.932;8.308;2023-05-14T08:35:10;22.00;99.90
12557;DHT22;6344;49.932;8.308;2023-05-14T08:37:37;21.70;99.90
12557;DHT22;6344;49.932;8.308;2023-05-14T08:40:04;22.00;99.90
12557;DHT22;6344;49.932;8.308;2023-05-14T08:42:33;22.30;99.90
12557;DHT22;6344;49.932;8.308;2023-05-14T08:45:00;22.30;99.90
12557;DHT22;6344;49.932;8.308;2023-05-14T08:47:28;21.60;99.90
12557;DHT22;6344;49.932;8.308;2023-05-14T08:50:00;21.40;99.90
12557;DHT22;6344;49.932;8.308;2023-05-14T08:52:27;22.00;99.90
12557;DHT22;6344;49.932;8.308;2023-05-14T08:54:54;22.50;99.90
12557;DHT22;6344;49.932;8.308;2023-05-14T08:57:22;22.80;99.90
12557;DHT22;6344;49.932;8.308;2023-05-14T08:59:51;22.50;99.90
12557;DHT22;6344;49.932;8.308;2023-05-14T09:02:21;23.10;99.90
12557;DHT22;6344;49.932;8.308;2023-05-14T09:04:49;23.10;99.90
12557;DHT22;6344;49.932;8.308;2023-05-14T09:07:21;23.20;99.90
12557;DHT22;6344;49.932;8.308;2023-05-14T09:09:48;22.30;99.90
12557;DHT22;6344;49.932;8.308;2023-05-14T09:12:15;23.60;99.90
12557;DHT22;6344;49.932;8.308;2023-05-14T09:14:42;22.10;99.90
12557;DHT22;6344;49.932;8.308;2023-05-14T09:17:09;22.90;99.90
12557;DHT22;6344;49.932;8.308;2023-05-14T09:19:37;23.00;99.90
12557;DHT22;6344;49.932;8.308;2023-05-14T09:22:07;22.20;99.90
12557;DHT22;6344;49.932;8.308;2023-05-14T09:24:35;22.10;99.90
12557;DHT22;6344;49.932;8.308;2023-05-14T09:27:04;22.40;99.90
12557;DHT22;6344;49.932;8.308;2023-05-14T09:29:31;22.80;99.90
12557;DHT22;6344;49.932;8.308;2023-05-14T09:31:59;23.20;99.90
12557;DHT22;6344;49.932;8.308;2023-05-14T09:34:30;23.40;99.90
12557;DHT22;6344;49.932;8.308;2023-05-14T09:36:58;24.00;99.90
12557;DHT22;6344;49.932;8.308;2023-05-14T09:39:26;24.80;99.90
12557;DHT22;6344;49.932;8.308;2023-05-14T09:41:54;24.80;99.90
12557;DHT22;6344;49.932;8.308;2023-05-14T09:44:22;24.00;99.90
12557;DHT22;6344;49.932;8.308;2023-05-14T09:46:49;23.50;99.90
12557;DHT22;6344;49.932;8.308;2023-05-14T09:49:16;22.80;99.90
12557;DHT22;6344;49.932;8.308;2023-05-14T09:51:43;22.30;99.90
12557;DHT22;6344;49.932;8.308;2023-05-14T09:54:10;22.00;99.90
12557;DHT22;6344;49.932;8.308;2023-05-14T09:56:37;21.20;99.90
12557;DHT22;6344;49.932;8.308;2023-05-14T09:59:06;21.30;99.90
12557;DHT22;6344;49.932;8.308;2023-05-14T10:01:32;21.60;99.90
12557;DHT22;6344;49.932;8.308;2023-05-14T10:04:01;21.00;99.90
12557;DHT22;6344;49.932;8.308;2023-05-14T10:06:32;20.70;99.90
12557;DHT22;6344;49.932;8.308;2023-05-14T10:09:00;20.60;99.90
12557;DHT22;6344;49.932;8.308;2023-05-14T10:11:33;21.70;99.90
12557;DHT22;6344;49.932;8.308;2023-05-14T10:14:07;22.10;99.90
12557;DHT22;6344;49.932;8.308;2023-05-14T10:16:37;21.60;99.90
12557;DHT22;6344;49.932;8.308;2023-05-14T10:19:08;20.90;99.90
12557;DHT22;6344;49.932;8.308;2023-05-14T10:21:36;20.50;99.90
12557;DHT22;6344;49.932;8.308;2023-05-14T10:24:05;20.30;99.90
12557;DHT22;6344;49.932;8.308;2023-05-14T10:26:33;21.50;99.90
12557;DHT22;6344;49.932;8.308;2023-05-14T10:29:02;21.70;99.90
12557;DHT22;6344;49.932;8.308;2023-05-14T10:31:47;22.00;99.90
12557;DHT22;6344;49.932;8.308;2023-05-14T10:34:30;21.60;99.90
12557;DHT22;6344;49.932;8.308;2023-05-14T10:36:58;20.80;99.90
12557;DHT22;6344;49.932;8.308;2023-05-14T10:39:48;20.70;99.90
12557;DHT22;6344;49.932;8.308;2023-05-14T10:42:17;20.70;99.90
12557;DHT22;6344;49.932;8.308;2023-05-14T10:44:48;20.50;99.90
12557;DHT22;6344;49.932;8.308;2023-05-14T10:47:16;20.80;99.90
12557;DHT22;6344;49.932;8.308;2023-05-14T10:49:45;20.50;99.90
12557;DHT22;6344;49.932;8.308;2023-05-14T10:52:15;20.40;99.90
12557;DHT22;6344;49.932;8.308;2023-05-14T10:54:49;21.00;99.90
12557;DHT22;6344;49.932;8.308;2023-05-14T10:57:17;21.40;99.90
12557;DHT22;6344;49.932;8.308;2023-05-14T10:59:46;21.50;99.90
12557;DHT22;6344;49.932;8.308;2023-05-14T11:02:24;21.30;99.90
12557;DHT22;6344;49.932;8.308;2023-05-14T11:04:56;21.40;99.90
12557;DHT22;6344;49.932;8.308;2023-05-14T11:07:27;22.00;99.90
12557;DHT22;6344;49.932;8.308;2023-05-14T11:09:59;21.30;99.90
12557;DHT22;6344;49.932;8.308;2023-05-14T11:12:26;20.90;99.90
12557;DHT22;6344;49.932;8.308;2023-05-14T11:14:54;21.60;99.90
12557;DHT22;6344;49.932;8.308;2023-05-14T11:17:23;22.20;99.90
12557;DHT22;6344;49.932;8.308;2023-05-14T11:19:50;22.20;99.90
12557;DHT22;6344;49.932;8.308;2023-05-14T11:22:17;22.50;99.90
12557;DHT22;6344;49.932;8.308;2023-05-14T11:24:43;22.80;99.90
12557;DHT22;6344;49.932;8.308;2023-05-14T11:27:10;23.10;99.90
12557;DHT22;6344;49.932;8.308;2023-05-14T11:29:37;22.80;99.90
12557;DHT22;6344;49.932;8.308;2023-05-14T11:32:05;22.70;99.90
12557;DHT22;6344;49.932;8.308;2023-05-14T11:34:33;22.90;99.90
12557;DHT22;6344;49.932;8.308;2023-05-14T11:37:02;22.40;99.90
12557;DHT22;6344;49.932;8.308;2023-05-14T11:39:29;22.70;99.90
12557;DHT22;6344;49.932;8.308;2023-05-14T11:41:57;22.80;99.90
12557;DHT22;6344;49.932;8.308;2023-05-14T11:44:24;23.00;99.90
12557;DHT22;6344;49.932;8.308;2023-05-14T11:46:54;23.90;99.90
12557;DHT22;6344;49.932;8.308;2023-05-14T11:49:21;24.10;99.90
12557;DHT22;6344;49.932;8.308;2023-05-14T11:51:49;24.20;99.90
12557;DHT22;6344;49.932;8.308;2023-05-14T11:54:16;25.00;99.90
12557;DHT22;6344;49.932;8.308;2023-05-14T11:56:48;25.40;99.90
12557;DHT22;6344;49.932;8.308;2023-05-14T11:59:16;25.70;99.90
12557;DHT22;6344;49.932;8.308;2023-05-14T12:01:43;26.70;99.90
12557;DHT22;6344;49.932;8.308;2023-05-14T12:04:10;27.10;99.90
12557;DHT22;6344;49.932;8.308;2023-05-14T12:06:38;26.70;99.90
12557;DHT22;6344;49.932;8.308;2023-05-14T12:09:06;26.20;99.90
12557;DHT22;6344;49.932;8.308;2023-05-14T12:11:35;26.30;99.90
12557;DHT22;6344;49.932;8.308;2023-05-14T12:14:09;26.20;99.90
12557;DHT22;6344;49.932;8.308;2023-05-14T12:16:39;26.70;99.90
12557;DHT22;6344;49.932;8.308;2023-05-14T12:19:07;26.80;99.90
12557;DHT22;6344;49.932;8.308;2023-05-14T12:21:34;26.00;99.90
12557;DHT22;6344;49.932;8.308;2023-05-14T12:24:01;24.70;99.90
12557;DHT22;6344;49.932;8.308;2023-05-14T12:26:31;25.00;99.90
12557;DHT22;6344;49.932;8.308;2023-05-14T12:28:59;24.50;99.90
12557;DHT22;6344;49.932;8.308;2023-05-14T12:31:30;23.30;99.90
12557;DHT22;6344;49.932;8.308;2023-05-14T12:33:57;24.00;99.90
12557;DHT22;6344;49.932;8.308;2023-05-14T12:36:23;25.30;99.90
12557;DHT22;6344;49.932;8.308;2023-05-14T12:38:56;25.60;99.90
12557;DHT22;6344;49.932;8.308;2023-05-14T12:41:23;25.20;99.90
12557;DHT22;6344;49.932;8.308;2023-05-14T12:43:51;24.40;99.90
12557;DHT22;6344;49.932;8.308;2023-05-14T12:46:18;24.90;99.90
12557;DHT22;6344;49.932;8.308;2023-05-14T12:48:45;24.90;99.90
12557;DHT22;6344;49.932;8.308;2023-05-14T12:51:11;25.00;99.90
12557;DHT22;6344;49.932;8.308;2023-05-14T12:53:38;25.00;99.90
12557;DHT22;6344;49.932;8.308;2023-05-14T12:56:05;25.50;99.90
12557;DHT22;6344;49.932;8.308;2023-05-14T12:58:32;25.70;99.90
12557;DHT22;6344;49.932;8.308;2023-05-14T13:01:00;26.30;99.90
12557;DHT22;6344;49.932;8.308;2023-05-14T13:03:27;26.10;99.90
12557;DHT22;6344;49.932;8.308;2023-05-14T13:05:54;25.50;99.90
12557;DHT22;6344;49.932;8.308;2023-05-14T13:08:20;26.50;99.90
12557;DHT22;6344;49.932;8.308;2023-05-14T13:10:50;26.70;99.90
12557;DHT22;6344;49.932;8.308;2023-05-14T13:13:17;27.00;99.90
12557;DHT22;6344;49.932;8.308;2023-05-14T13:15:43;27.30;99.90
12557;DHT22;6344;49.932;8.308;2023-05-14T13:18:12;27.00;99.90
12557;DHT22;6344;49.932;8.308;2023-05-14T13:20:39;26.80;99.90
12557;DHT22;6344;49.932;8.308;2023-05-14T13:23:06;26.10;99.90
12557;DHT22;6344;49.932;8.308;2023-05-14T13:25:33;26.20;99.90
12557;DHT22;6344;49.932;8.308;2023-05-14T13:27:59;26.20;99.90
12557;DHT22;6344;49.932;8.308;2023-05-14T13:30:26;26.10;99.90
12557;DHT22;6344;49.932;8.308;2023-05-14T13:32:53;27.10;99.90
12557;DHT22;6344;49.932;8.308;2023-05-14T13:35:20;27.40;99.90
12557;DHT22;6344;49.932;8.308;2023-05-14T13:37:47;27.50;99.90
12557;DHT22;6344;49.932;8.308;2023-05-14T13:40:14;27.20;99.90
12557;DHT22;6344;49.932;8.308;2023-05-14T13:42:41;27.90;99.90
12557;DHT22;6344;49.932;8.308;2023-05-14T13:45:08;26.90;99.90
12557;DHT22;6344;49.932;8.308;2023-05-14T13:47:36;25.90;99.90
12557;DHT22;6344;49.932;8.308;2023-05-14T13:50:03;26.00;99.90
12557;DHT22;6344;49.932;8.308;2023-05-14T13:52:31;27.70;99.90
12557;DHT22;6344;49.932;8.308;2023-05-14T13:54:57;28.40;99.90
12557;DHT22;6344;49.932;8.308;2023-05-14T13:57:24;29.00;99.90
12557;DHT22;6344;49.932;8.308;2023-05-14T13:59:50;29.10;99.90
12557;DHT22;6344;49.932;8.308;2023-05-14T14:02:17;29.10;99.90
12557;DHT22;6344;49.932;8.308;2023-05-14T14:04:43;27.80;99.90
12557;DHT22;6344;49.932;8.308;2023-05-14T14:07:10;26.00;99.90
12557;DHT22;6344;49.932;8.308;2023-05-14T14:09:38;26.80;99.90
12557;DHT22;6344;49.932;8.308;2023-05-14T14:12:05;28.00;99.90
12557;DHT22;6344;49.932;8.308;2023-05-14T14:14:33;28.00;99.90
12557;DHT22;6344;49.932;8.308;2023-05-14T14:16:59;25.80;99.90
12557;DHT22;6344;49.932;8.308;2023-05-14T14:19:26;25.20;99.90
12557;DHT22;6344;49.932;8.308;2023-05-14T14:21:53;25.00;99.90
12557;DHT22;6344;49.932;8.308;2023-05-14T14:24:19;23.60;99.90
12557;DHT22;6344;49.932;8.308;2023-05-14T14:26:47;23.60;99.90
12557;DHT22;6344;49.932;8.308;2023-05-14T14:29:14;24.60;99.90
12557;DHT22;6344;49.932;8.308;2023-05-14T14:31:40;25.40;99.90
12557;DHT22;6344;49.932;8.308;2023-05-14T14:34:07;26.10;99.90
12557;DHT22;6344;49.932;8.308;2023-05-14T14:36:34;26.50;99.90
12557;DHT22;6344;49.932;8.308;2023-05-14T14:39:01;26.70;99.90
12557;DHT22;6344;49.932;8.308;2023-05-14T14:41:27;27.30;99.90
12557;DHT22;6344;49.932;8.308;2023-05-14T14:43:56;27.40;99.90
12557;DHT22;6344;49.932;8.308;2023-05-14T14:46:23;26.50;99.90
12557;DHT22;6344;49.932;8.308;2023-05-14T14:48:49;26.40;99.90
12557;DHT22;6344;49.932;8.308;2023-05-14T14:51:16;26.10;99.90
12557;DHT22;6344;49.932;8.308;2023-05-14T14:53:42;25.90;99.90
12557;DHT22;6344;49.932;8.308;2023-05-14T14:56:09;25.90;99.90
12557;DHT22;6344;49.932;8.308;2023-05-14T14:58:36;26.80;99.90
12557;DHT22;6344;49.932;8.308;2023-05-14T15:01:04;26.90;99.90
12557;DHT22;6344;49.932;8.308;2023-05-14T15:03:31;26.90;99.90
12557;DHT22;6344;49.932;8.308;2023-05-14T15:05:57;27.30;99.90
12557;DHT22;6344;49.932;8.308;2023-05-14T15:08:25;27.20;99.90
12557;DHT22;6344;49.932;8.308;2023-05-14T15:10:52;27.90;99.90
12557;DHT22;6344;49.932;8.308;2023-05-14T15:13:18;28.30;99.90
12557;DHT22;6344;49.932;8.308;2023-05-14T15:15:45;28.00;99.90
12557;DHT22;6344;49.932;8.308;2023-05-14T15:18:13;27.10;99.90
12557;DHT22;6344;49.932;8.308;2023-05-14T15:20:40;26.70;99.90
12557;DHT22;6344;49.932;8.308;2023-05-14T15:23:06;26.70;99.90
12557;DHT22;6344;49.932;8.308;2023-05-14T15:25:33;27.60;99.90
12557;DHT22;6344;49.932;8.308;2023-05-14T15:28:00;25.50;99.90
12557;DHT22;6344;49.932;8.308;2023-05-14T15:30:26;26.00;99.90
12557;DHT22;6344;49.932;8.308;2023-05-14T15:32:53;26.70;99.90
12557;DHT22;6344;49.932;8.308;2023-05-14T15:35:22;25.90;99.90
12557;DHT22;6344;49.932;8.308;2023-05-14T15:37:49;25.30;99.90
12557;DHT22;6344;49.932;8.308;2023-05-14T15:40:15;25.30;99.90
12557;DHT22;6344;49.932;8.308;2023-05-14T15:42:42;26.00;99.90
12557;DHT22;6344;49.932;8.308;2023-05-14T15:45:11;26.70;99.90
12557;DHT22;6344;49.932;8.308;2023-05-14T15:47:38;26.90;99.90
12557;DHT22;6344;49.932;8.308;2023-05-14T15:50:06;26.80;99.90
12557;DHT22;6344;49.932;8.308;2023-05-14T15:52:34;27.20;99.90
12557;DHT22;6344;49.932;8.308;2023-05-14T15:55:01;27.00;99.90